Good Samaritan Village, Nebraska
Current Conditions -  °F | °C
As of 2:53 PM on Monday 22 Dec 2014 (Local Time) from KHSI Reporting Station
Broken Clouds Broken Clouds  
Wind Chill: 39°   Ceiling: 4500
Heat Index: 47°   Visibility: 10mi
Dew Point: 30°   Wind: 22mph
Humidity: 52%   Direction: 320°NW
Pressure: 29.47"   Gusts: 28mph
Location:  40.5551°N, 98.369°W
Report Text: KHSI 222053Z AUTO 32019G24KT 10SM BKN045 BKN050 08/M01 A2947 RMK AO2 PK WND 33033/2012 SLP982 T00831011 55011
Loading
Personal Weather Stations






























Interactive Weather Map New forecast layout! Learn more

10-Day Weather Forecast

Advertisements
Track Severe Weather on mobile